createdAt,value
2022-12-16T00:01:13.018Z,37.25
2022-12-16T00:03:44.288Z,30.48
2022-12-16T00:06:12.769Z,27.40
2022-12-16T00:08:42.499Z,23.95
2022-12-16T00:11:11.561Z,22.33
2022-12-16T00:13:41.472Z,23.10
2022-12-16T00:16:13.228Z,19.85
2022-12-16T00:18:42.430Z,19.88
2022-12-16T00:21:11.873Z,17.13
2022-12-16T00:23:42.676Z,16.77
2022-12-16T00:26:12.560Z,18.02
2022-12-16T00:28:43.755Z,16.30
2022-12-16T00:31:12.609Z,15.18
2022-12-16T00:33:41.763Z,15.95
2022-12-16T00:36:10.912Z,15.50
2022-12-16T00:38:39.497Z,15.15
2022-12-16T00:41:09.601Z,14.68
2022-12-16T00:43:37.929Z,15.23
2022-12-16T00:46:06.776Z,15.65
2022-12-16T00:48:35.168Z,15.23
2022-12-16T00:51:03.589Z,14.90
2022-12-16T00:53:32.536Z,14.60
2022-12-16T00:56:06.961Z,15.32
2022-12-16T00:58:37.439Z,14.15
2022-12-16T01:01:06.950Z,14.60
2022-12-16T01:03:36.385Z,14.63
2022-12-16T01:06:10.258Z,14.90
2022-12-16T01:08:38.845Z,13.32
2022-12-16T01:11:07.620Z,13.65
2022-12-16T01:13:37.454Z,15.15
2022-12-16T01:16:06.843Z,14.63
2022-12-16T01:18:35.152Z,14.30
2022-12-16T01:21:08.426Z,13.60
2022-12-16T01:23:36.928Z,15.15
2022-12-16T01:26:06.134Z,13.00
2022-12-16T01:28:34.412Z,13.10
2022-12-16T01:31:04.045Z,13.57
2022-12-16T01:33:34.444Z,14.20
2022-12-16T01:36:05.256Z,11.93
2022-12-16T01:38:34.711Z,12.00
2022-12-16T01:41:04.445Z,12.13
2022-12-16T01:43:36.012Z,11.90
2022-12-16T01:46:14.819Z,11.73
2022-12-16T01:48:48.545Z,11.65
2022-12-16T01:51:23.601Z,10.27
2022-12-16T01:53:57.156Z,11.10
2022-12-16T01:56:28.391Z,11.07
2022-12-16T01:58:57.443Z,10.15
2022-12-16T02:01:27.401Z,9.23
2022-12-16T02:04:01.845Z,9.25
2022-12-16T02:06:31.132Z,9.32
2022-12-16T02:09:06.504Z,9.32
2022-12-16T02:12:18.516Z,8.10
2022-12-16T02:15:08.831Z,7.85
2022-12-16T02:17:50.604Z,7.55
2022-12-16T02:20:55.208Z,7.40
2022-12-16T02:24:11.316Z,7.10
2022-12-16T02:27:32.067Z,7.38
2022-12-16T02:30:51.104Z,8.00
2022-12-16T02:33:38.813Z,7.40
2022-12-16T02:36:13.826Z,6.93
2022-12-16T02:38:56.023Z,7.55
2022-12-16T02:41:34.195Z,6.63
2022-12-16T02:44:06.585Z,7.63
2022-12-16T02:46:42.572Z,6.40
2022-12-16T02:49:55.334Z,6.47
2022-12-16T02:52:26.707Z,5.78
2022-12-16T02:54:59.110Z,5.85
2022-12-16T02:57:54.815Z,5.20
2022-12-16T03:00:25.064Z,5.68
2022-12-16T03:03:02.080Z,5.13
2022-12-16T03:05:34.697Z,5.50
2022-12-16T03:08:11.893Z,5.10
2022-12-16T03:10:46.093Z,4.65
2022-12-16T03:13:19.882Z,4.60
2022-12-16T03:15:51.074Z,4.57
2022-12-16T03:18:21.907Z,4.28
2022-12-16T03:20:56.790Z,3.72
2022-12-16T03:23:30.865Z,4.55
2022-12-16T03:26:09.093Z,4.53
2022-12-16T03:28:45.962Z,4.57
2022-12-16T03:31:30.335Z,3.90
2022-12-16T03:34:06.456Z,4.25
2022-12-16T03:36:38.998Z,4.32
2022-12-16T03:39:09.591Z,4.25
2022-12-16T03:41:39.908Z,4.28
2022-12-16T03:44:09.560Z,4.28
2022-12-16T03:46:38.153Z,4.53
2022-12-16T03:49:08.045Z,4.90
2022-12-16T03:51:36.375Z,4.03
2022-12-16T03:54:04.711Z,3.80
2022-12-16T03:56:32.964Z,3.92
2022-12-16T03:59:01.306Z,4.88
2022-12-16T04:01:29.569Z,4.30
2022-12-16T04:03:58.004Z,4.45
2022-12-16T04:06:27.614Z,3.80
2022-12-16T04:08:55.859Z,3.25
2022-12-16T04:11:41.897Z,3.50
2022-12-16T04:14:28.052Z,4.03
2022-12-16T04:17:14.755Z,3.50
2022-12-16T04:20:03.729Z,3.88
2022-12-16T04:22:55.525Z,3.95
2022-12-16T04:25:27.060Z,3.50
2022-12-16T04:27:55.357Z,3.63
2022-12-16T04:30:23.835Z,3.55
2022-12-16T04:33:12.669Z,3.40
2022-12-16T04:36:01.536Z,4.35
2022-12-16T04:38:49.718Z,3.95
2022-12-16T04:41:35.640Z,3.65
2022-12-16T04:44:21.948Z,3.45
2022-12-16T04:47:07.984Z,3.92
2022-12-16T04:49:53.935Z,4.18
2022-12-16T04:52:39.983Z,3.42
2022-12-16T04:55:43.740Z,4.13
2022-12-16T04:58:29.421Z,3.65
2022-12-16T05:01:15.604Z,4.13
2022-12-16T05:04:01.253Z,3.22
2022-12-16T05:06:47.005Z,3.92
2022-12-16T05:09:32.839Z,4.15
2022-12-16T05:12:20.416Z,3.95
2022-12-16T05:15:06.469Z,4.30
2022-12-16T05:17:52.587Z,3.83
2022-12-16T05:20:38.317Z,4.60
2022-12-16T05:23:24.458Z,4.93
2022-12-16T05:26:09.946Z,4.28
2022-12-16T05:28:56.965Z,4.38
2022-12-16T05:31:43.127Z,4.20
2022-12-16T05:34:28.831Z,4.43
2022-12-16T05:37:14.432Z,4.15
2022-12-16T05:40:00.089Z,4.90
2022-12-16T05:42:42.251Z,4.60
2022-12-16T05:45:29.439Z,4.47
2022-12-16T05:48:15.011Z,5.10
2022-12-16T05:51:00.830Z,4.38
2022-12-16T05:53:54.985Z,4.53
2022-12-16T05:56:41.160Z,5.15
2022-12-16T05:59:27.067Z,5.18
2022-12-16T06:02:14.226Z,4.68
2022-12-16T06:05:00.400Z,5.38
2022-12-16T06:07:46.068Z,4.57
2022-12-16T06:10:31.822Z,4.95
2022-12-16T06:13:17.662Z,5.07
2022-12-16T06:16:08.533Z,5.30
2022-12-16T06:18:56.395Z,4.78
2022-12-16T06:21:42.432Z,4.97
2022-12-16T06:24:28.171Z,5.25
2022-12-16T06:27:14.175Z,4.93
2022-12-16T06:30:00.059Z,4.97
2022-12-16T06:32:45.784Z,5.05
2022-12-16T06:35:33.320Z,5.60
2022-12-16T06:38:19.158Z,5.53
2022-12-16T06:41:04.803Z,5.40
2022-12-16T06:43:50.460Z,5.68
2022-12-16T06:46:37.405Z,5.05
2022-12-16T06:49:23.376Z,5.85
2022-12-16T06:52:10.565Z,5.78
2022-12-16T06:54:56.468Z,5.90
2022-12-16T06:57:42.595Z,5.55
2022-12-16T07:00:30.054Z,6.00
2022-12-16T07:03:16.097Z,5.38
2022-12-16T07:06:02.672Z,5.97
2022-12-16T07:08:50.120Z,6.57
2022-12-16T07:11:36.007Z,5.55
2022-12-16T07:14:22.246Z,5.72
2022-12-16T07:17:13.689Z,5.38
2022-12-16T07:20:02.821Z,6.45
2022-12-16T07:22:52.246Z,6.40
2022-12-16T07:25:48.933Z,6.88
2022-12-16T07:28:34.853Z,5.57
2022-12-16T07:31:20.760Z,5.90
2022-12-16T07:34:06.910Z,6.68
2022-12-16T07:36:52.577Z,5.43
2022-12-16T07:39:38.703Z,5.00
2022-12-16T07:42:26.340Z,6.57
2022-12-16T07:45:12.342Z,5.75
2022-12-16T07:48:06.220Z,6.13
2022-12-16T07:50:52.113Z,5.85
2022-12-16T07:53:39.420Z,6.05
2022-12-16T07:56:27.099Z,6.47
2022-12-16T07:59:14.795Z,6.82
2022-12-16T08:02:00.794Z,7.90
2022-12-16T08:04:46.923Z,7.45
2022-12-16T08:07:32.882Z,6.47
2022-12-16T08:10:18.874Z,5.97
2022-12-16T08:13:04.907Z,6.85
2022-12-16T08:15:52.285Z,7.20
2022-12-16T08:18:38.713Z,6.70
2022-12-16T08:21:25.165Z,7.07
2022-12-16T08:24:10.971Z,6.15
2022-12-16T08:26:56.856Z,7.07
2022-12-16T08:29:44.622Z,7.10
2022-12-16T08:32:33.071Z,6.47
2022-12-16T08:35:18.724Z,6.88
2022-12-16T08:38:09.019Z,6.60
2022-12-16T08:40:58.114Z,6.95
2022-12-16T08:43:44.439Z,7.70
2022-12-16T08:46:30.335Z,7.43
2022-12-16T08:49:17.648Z,7.32
2022-12-16T08:52:04.001Z,6.90
2022-12-16T08:54:49.731Z,6.78
2022-12-16T08:57:35.704Z,7.53
2022-12-16T09:00:22.736Z,7.70
2022-12-16T09:03:13.975Z,7.15
2022-12-16T09:06:01.338Z,7.70
2022-12-16T09:08:47.477Z,7.57
2022-12-16T09:11:33.083Z,7.63
2022-12-16T09:14:19.176Z,7.70
2022-12-16T09:17:05.090Z,7.30
2022-12-16T09:19:51.155Z,8.45
2022-12-16T09:22:38.321Z,7.63
2022-12-16T09:25:25.516Z,7.88
2022-12-16T09:28:11.655Z,8.23
2022-12-16T09:30:57.884Z,8.90
2022-12-16T09:33:43.742Z,7.97
2022-12-16T09:36:29.843Z,8.98
2022-12-16T09:39:17.219Z,9.43
2022-12-16T09:42:11.907Z,8.95
2022-12-16T09:45:11.721Z,8.68
2022-12-16T09:48:05.065Z,9.57
2022-12-16T09:50:51.473Z,8.93
2022-12-16T09:53:40.877Z,9.13
2022-12-16T09:56:38.362Z,9.05
2022-12-16T09:59:30.442Z,9.10
2022-12-16T10:02:16.428Z,9.60
2022-12-16T10:05:05.322Z,10.48
2022-12-16T10:07:59.533Z,10.18
2022-12-16T10:10:58.045Z,10.20
2022-12-16T10:13:52.696Z,10.98
2022-12-16T10:16:48.111Z,12.02
2022-12-16T10:19:50.566Z,11.25
2022-12-16T10:22:46.944Z,11.90
2022-12-16T10:25:37.340Z,13.10
2022-12-16T10:28:35.742Z,10.55
2022-12-16T10:31:36.311Z,12.23
2022-12-16T10:34:29.451Z,11.02
2022-12-16T10:37:20.661Z,11.40
2022-12-16T10:40:16.886Z,11.27
2022-12-16T10:43:09.774Z,11.07
2022-12-16T10:46:00.988Z,9.90
2022-12-16T10:48:56.276Z,10.23
2022-12-16T10:51:46.549Z,9.93
2022-12-16T10:54:51.297Z,8.85
2022-12-16T10:57:50.662Z,8.15
2022-12-16T11:00:40.489Z,7.60
2022-12-16T11:03:38.928Z,7.35
2022-12-16T11:06:27.227Z,8.10
2022-12-16T11:09:13.228Z,6.80
2022-12-16T11:11:59.861Z,6.60
2022-12-16T11:15:27.097Z,6.50
2022-12-16T11:17:54.668Z,6.38
2022-12-16T11:20:44.756Z,6.35
2022-12-16T11:23:47.693Z,5.88
2022-12-16T11:26:37.672Z,5.72
2022-12-16T11:29:38.009Z,5.97
2022-12-16T11:32:37.921Z,5.60
2022-12-16T11:35:31.208Z,5.63
2022-12-16T11:38:18.091Z,6.05
2022-12-16T11:41:05.781Z,4.80
2022-12-16T11:43:52.033Z,5.38
2022-12-16T11:46:43.843Z,5.28
2022-12-16T11:49:47.785Z,5.78
2022-12-16T11:52:37.651Z,6.10
2022-12-16T11:56:04.448Z,5.75
2022-12-16T11:58:50.547Z,5.63
2022-12-16T12:01:45.727Z,5.55
2022-12-16T12:04:32.985Z,5.55
2022-12-16T12:07:45.388Z,5.68
2022-12-16T12:10:57.762Z,5.15
2022-12-16T12:14:04.512Z,5.30
2022-12-16T12:17:01.034Z,5.20
2022-12-16T12:19:59.484Z,5.90
2022-12-16T12:22:53.919Z,6.13
2022-12-16T12:25:49.084Z,5.88
2022-12-16T12:29:05.615Z,5.22
2022-12-16T12:32:02.567Z,5.32
2022-12-16T12:34:58.529Z,5.22
2022-12-16T12:37:49.958Z,5.60
2022-12-16T12:40:51.432Z,5.55
2022-12-16T12:43:49.064Z,4.95
2022-12-16T12:46:50.329Z,5.55
2022-12-16T12:49:45.839Z,5.25
2022-12-16T12:52:47.069Z,5.20
2022-12-16T12:55:41.768Z,5.38
2022-12-16T12:58:29.294Z,5.10
2022-12-16T13:01:17.531Z,5.55
2022-12-16T13:04:09.607Z,5.82
2022-12-16T13:06:56.572Z,5.30
2022-12-16T13:09:51.644Z,5.25
2022-12-16T13:12:49.853Z,5.75
2022-12-16T13:15:52.837Z,5.22
2022-12-16T13:18:45.991Z,4.53
2022-12-16T13:22:16.842Z,4.93
2022-12-16T13:25:08.985Z,5.03
2022-12-16T13:28:15.186Z,5.57
2022-12-16T13:31:25.268Z,4.90
2022-12-16T13:34:13.615Z,4.90
2022-12-16T13:37:01.220Z,5.30
2022-12-16T13:39:50.007Z,5.22
2022-12-16T13:43:13.896Z,6.13
2022-12-16T13:46:02.505Z,5.70
2022-12-16T13:48:53.850Z,5.60
2022-12-16T13:52:18.319Z,5.40
2022-12-16T13:55:13.289Z,5.70
2022-12-16T13:58:02.406Z,5.85
2022-12-16T14:00:52.818Z,5.63
2022-12-16T14:03:52.571Z,6.03
2022-12-16T14:06:43.733Z,5.63
2022-12-16T14:09:47.282Z,6.10
2022-12-16T14:12:59.516Z,5.93
2022-12-16T14:15:53.679Z,5.95
2022-12-16T14:18:56.716Z,5.95
2022-12-16T14:21:51.752Z,5.97
2022-12-16T14:24:43.443Z,7.07
2022-12-16T14:27:37.873Z,7.95
2022-12-16T14:30:37.174Z,7.50
2022-12-16T14:33:46.759Z,7.03
2022-12-16T14:36:41.950Z,7.75
2022-12-16T14:39:33.056Z,7.50
2022-12-16T14:42:19.252Z,8.85
2022-12-16T14:45:07.124Z,6.82
2022-12-16T14:47:53.433Z,7.55
2022-12-16T14:50:45.038Z,7.30
2022-12-16T14:53:37.326Z,7.82
2022-12-16T14:56:49.243Z,7.88
2022-12-16T14:59:37.621Z,6.75
2022-12-16T15:02:43.826Z,7.00
2022-12-16T15:05:30.110Z,7.32
2022-12-16T15:08:16.435Z,7.85
2022-12-16T15:11:02.978Z,7.43
2022-12-16T15:13:49.548Z,6.88
2022-12-16T15:16:42.113Z,7.18
2022-12-16T15:19:37.624Z,7.85
2022-12-16T15:22:23.936Z,7.05
2022-12-16T15:25:10.434Z,6.82
2022-12-16T15:27:57.546Z,7.15
2022-12-16T15:30:57.998Z,7.25
2022-12-16T15:39:09.603Z,8.30
2022-12-16T15:41:56.859Z,7.60
2022-12-16T15:44:45.634Z,7.97
2022-12-16T15:47:47.168Z,8.40
2022-12-16T15:50:34.791Z,8.48
2022-12-16T15:53:36.076Z,8.50
2022-12-16T15:56:38.228Z,8.50
2022-12-16T15:59:49.963Z,9.25
2022-12-16T16:02:40.729Z,9.25
2022-12-16T16:05:40.361Z,10.20
2022-12-16T16:08:28.187Z,10.02
2022-12-16T16:11:14.473Z,10.68
2022-12-16T16:14:07.300Z,10.02
2022-12-16T16:16:59.045Z,12.13
2022-12-16T16:19:46.404Z,15.02
2022-12-16T16:22:35.330Z,10.70
2022-12-16T16:25:21.398Z,10.40
2022-12-16T16:28:07.869Z,10.02
2022-12-16T16:30:55.009Z,10.50
2022-12-16T16:33:40.806Z,10.85
2022-12-16T16:36:33.885Z,10.30
2022-12-16T16:39:19.873Z,10.88
2022-12-16T16:42:05.826Z,11.43
2022-12-16T16:44:50.965Z,10.68
2022-12-16T16:47:38.926Z,11.43
2022-12-16T16:50:25.811Z,12.05
2022-12-16T16:53:11.778Z,11.73
2022-12-16T16:56:03.215Z,12.18
2022-12-16T16:58:52.557Z,11.65
2022-12-16T17:01:38.903Z,11.23
2022-12-16T17:04:28.568Z,10.70
2022-12-16T17:07:14.573Z,11.90
2022-12-16T17:10:00.150Z,12.02
2022-12-16T17:12:48.510Z,14.40
2022-12-16T17:15:37.941Z,13.60
2022-12-16T17:18:24.670Z,17.67
2022-12-16T17:21:12.766Z,19.90
2022-12-16T17:23:58.971Z,21.08
2022-12-16T17:26:45.924Z,19.80
2022-12-16T17:29:39.161Z,20.50
2022-12-16T17:32:25.122Z,19.85
2022-12-16T17:35:11.731Z,21.40
2022-12-16T17:37:58.917Z,20.65
2022-12-16T17:40:45.201Z,19.08
2022-12-16T17:43:31.848Z,19.02
2022-12-16T17:46:22.167Z,20.38
2022-12-16T17:49:11.689Z,19.55
2022-12-16T17:51:58.015Z,19.15
2022-12-16T17:54:45.367Z,20.13
2022-12-16T17:57:31.179Z,18.48
2022-12-16T18:00:17.776Z,18.70
2022-12-16T18:03:03.663Z,19.98
2022-12-16T18:05:49.012Z,19.80
2022-12-16T18:08:34.665Z,18.42
2022-12-16T18:11:22.027Z,23.77
2022-12-16T18:14:08.097Z,27.42
2022-12-16T18:16:54.389Z,23.33
2022-12-16T18:19:40.290Z,26.38
2022-12-16T18:22:26.312Z,25.20
2022-12-16T18:25:14.685Z,25.98
2022-12-16T18:28:02.151Z,26.15
2022-12-16T18:30:48.109Z,25.25
2022-12-16T18:33:34.192Z,24.05
2022-12-16T18:36:20.133Z,23.67
2022-12-16T18:39:05.984Z,24.27
2022-12-16T18:41:52.240Z,23.13
2022-12-16T18:44:39.735Z,24.20
2022-12-16T18:47:25.475Z,27.05
2022-12-16T18:50:11.501Z,26.67
2022-12-16T18:52:57.570Z,29.52
2022-12-16T18:55:43.553Z,40.25
2022-12-16T19:01:48.586Z,42.15
2022-12-16T19:04:34.766Z,39.88
2022-12-16T19:07:20.870Z,42.97
2022-12-16T19:10:06.950Z,41.75
2022-12-16T19:12:53.541Z,39.17
2022-12-16T19:15:41.711Z,37.63
2022-12-16T19:18:30.955Z,37.75
2022-12-16T19:21:17.373Z,45.63
2022-12-16T19:24:03.402Z,43.00
2022-12-16T19:26:49.694Z,36.63
2022-12-16T19:29:35.670Z,37.20
2022-12-16T19:32:20.948Z,42.80
2022-12-16T19:35:08.787Z,81.72
2022-12-16T19:37:55.018Z,92.70
2022-12-16T19:40:42.917Z,63.67
2022-12-16T19:43:28.646Z,58.30
2022-12-16T19:46:15.432Z,59.55
2022-12-16T19:49:01.608Z,58.63
2022-12-16T19:51:48.975Z,54.83
2022-12-16T19:54:34.898Z,61.53
2022-12-16T19:57:21.181Z,59.92
2022-12-16T20:00:07.039Z,53.00
2022-12-16T20:02:52.790Z,56.63
2022-12-16T20:05:39.639Z,55.10
2022-12-16T20:08:27.544Z,63.78
2022-12-16T20:11:09.712Z,51.33
2022-12-16T20:13:56.069Z,54.92
2022-12-16T20:16:53.997Z,45.92
2022-12-16T20:19:40.075Z,49.25
2022-12-16T20:22:28.483Z,47.72
2022-12-16T20:25:15.434Z,49.85
2022-12-16T20:28:01.750Z,53.65
2022-12-16T20:30:47.807Z,50.08
2022-12-16T20:33:34.373Z,52.15
2022-12-16T20:36:23.115Z,46.20
2022-12-16T20:39:12.338Z,48.58
2022-12-16T20:42:00.457Z,43.58
2022-12-16T20:44:48.657Z,43.33
2022-12-16T20:47:37.913Z,40.67
2022-12-16T20:50:25.231Z,39.50
2022-12-16T20:53:11.278Z,42.17
2022-12-16T20:55:57.198Z,38.92
2022-12-16T20:58:44.727Z,40.70
2022-12-16T21:01:30.840Z,35.70
2022-12-16T21:04:17.287Z,37.38
2022-12-16T21:07:03.584Z,36.05
2022-12-16T21:09:49.487Z,36.03
2022-12-16T21:12:49.930Z,37.33
2022-12-16T21:15:37.715Z,35.67
2022-12-16T21:18:23.728Z,35.22
2022-12-16T21:21:11.411Z,36.15
2022-12-16T21:23:57.777Z,37.28
2022-12-16T21:26:43.740Z,34.80
2022-12-16T21:29:29.795Z,34.88
2022-12-16T21:32:17.172Z,34.72
2022-12-16T21:35:03.160Z,35.40
2022-12-16T21:37:49.227Z,37.83
2022-12-16T21:40:35.137Z,35.50
2022-12-16T21:43:29.262Z,37.00
2022-12-16T21:46:14.931Z,36.97
2022-12-16T21:49:02.253Z,37.00
2022-12-16T21:51:48.225Z,35.28
2022-12-16T21:54:34.611Z,36.75
2022-12-16T21:57:20.725Z,34.10
2022-12-16T22:00:06.710Z,37.97
2022-12-16T22:02:53.781Z,33.15
2022-12-16T22:05:41.119Z,34.28
2022-12-16T22:08:28.282Z,34.97
2022-12-16T22:11:14.512Z,32.40
2022-12-16T22:14:00.251Z,33.50
2022-12-16T22:16:51.790Z,37.28
2022-12-16T22:19:37.380Z,35.80
2022-12-16T22:22:24.392Z,32.85
2022-12-16T22:28:15.786Z,33.92
2022-12-16T22:30:57.982Z,31.85
2022-12-16T22:33:44.060Z,31.38
2022-12-16T22:36:32.425Z,31.80
2022-12-16T22:39:24.931Z,33.97
2022-12-16T22:42:10.779Z,32.97
2022-12-16T22:44:56.679Z,32.13
2022-12-16T22:47:42.485Z,30.83
2022-12-16T22:50:28.516Z,30.38
2022-12-16T22:53:14.423Z,30.38
2022-12-16T22:56:02.278Z,31.25
2022-12-16T22:58:48.074Z,31.35
2022-12-16T23:01:34.224Z,31.42
2022-12-16T23:04:20.126Z,29.48
2022-12-16T23:07:06.059Z,29.67
2022-12-16T23:09:53.308Z,29.13
2022-12-16T23:12:41.016Z,30.55
2022-12-16T23:15:30.250Z,30.17
2022-12-16T23:18:15.974Z,28.73
2022-12-16T23:21:05.041Z,27.80
2022-12-16T23:23:53.093Z,27.38
2022-12-16T23:26:36.329Z,26.98
2022-12-16T23:29:24.049Z,27.48
2022-12-16T23:32:10.236Z,27.90
2022-12-16T23:34:59.168Z,26.65
2022-12-16T23:37:44.877Z,29.15
2022-12-16T23:40:27.468Z,28.52
2022-12-16T23:43:13.525Z,28.73
2022-12-16T23:46:01.598Z,27.55
2022-12-16T23:48:47.587Z,27.10
2022-12-16T23:51:33.250Z,26.55
2022-12-16T23:54:19.028Z,25.85
2022-12-16T23:57:04.942Z,27.25
2022-12-16T23:59:50.802Z,25.05
